createdAt,value
2023-09-21T11:31:03.276Z,0.50
2023-09-21T11:31:33.008Z,0.50
2023-09-21T11:32:02.917Z,0.50
2023-09-21T12:47:56.295Z,0.50
2023-09-21T12:48:27.003Z,0.50
2023-09-21T12:48:56.913Z,0.50
2023-09-21T12:49:27.076Z,0.50
2023-09-21T12:49:56.835Z,0.50
2023-09-21T12:50:26.951Z,0.50
2023-09-21T12:50:56.891Z,0.50
2023-09-21T12:51:26.983Z,0.50
2023-09-21T12:51:58.213Z,0.50
2023-09-21T12:52:26.802Z,0.50
2023-09-21T12:52:56.999Z,0.50
2023-09-21T12:53:26.980Z,0.45
2023-09-21T12:53:56.802Z,0.38
2023-09-21T12:54:26.951Z,0.36
2023-09-21T12:54:56.796Z,0.37
2023-09-21T12:55:26.778Z,0.37
2023-09-21T12:55:56.788Z,0.41
2023-09-21T12:56:26.885Z,0.40
2023-09-21T12:56:56.811Z,0.40
2023-09-21T12:57:26.989Z,0.45
2023-09-21T12:57:56.883Z,0.50
2023-09-21T12:58:26.797Z,0.50
2023-09-21T12:58:56.881Z,0.56
2023-09-21T12:59:26.753Z,0.63
2023-09-21T12:59:57.976Z,0.67
2023-09-21T13:01:45.121Z,0.50
2023-09-21T13:02:15.836Z,0.50
2023-09-21T13:02:47.050Z,0.50
2023-09-21T13:03:16.254Z,0.50
2023-09-21T13:03:46.158Z,0.50
2023-09-21T13:04:15.990Z,0.50
2023-09-21T13:04:45.898Z,0.50
2023-09-21T13:05:15.968Z,0.50
2023-09-21T13:05:45.780Z,0.50
2023-09-21T13:06:15.927Z,0.50
2023-09-21T13:06:45.794Z,0.50
2023-09-21T13:07:15.885Z,0.50
2023-09-21T13:07:45.907Z,0.50
2023-09-21T13:08:15.870Z,0.50
2023-09-21T13:08:46.142Z,0.50
2023-09-21T13:09:15.919Z,0.51
2023-09-21T13:09:51.798Z,0.50
2023-09-21T13:10:15.903Z,0.50
2023-09-21T13:10:45.725Z,0.50
2023-09-21T13:11:15.721Z,0.49
2023-09-21T13:11:45.781Z,0.48
2023-09-21T13:12:15.891Z,0.45
2023-09-21T13:12:45.733Z,0.46
2023-09-21T13:13:15.838Z,0.46
2023-09-21T13:13:46.017Z,0.51
2023-09-21T13:14:15.829Z,0.82
2023-09-21T13:14:45.827Z,0.71
2023-09-21T13:15:16.027Z,0.50
2023-09-21T13:15:46.570Z,0.51
2023-09-21T13:16:15.870Z,0.58
2023-09-21T13:16:45.931Z,0.58
2023-09-21T13:17:15.829Z,0.55
2023-09-21T13:17:45.702Z,0.53
2023-09-21T13:18:15.966Z,0.59
2023-09-21T13:18:46.220Z,0.59
2023-09-21T13:19:15.793Z,0.55
2023-09-21T13:19:45.781Z,0.53
2023-09-21T13:20:15.789Z,0.54
2023-09-21T13:20:46.082Z,0.55
2023-09-21T13:21:15.827Z,0.54
2023-09-21T13:21:45.805Z,0.54
2023-09-21T13:22:15.840Z,0.59
2023-09-21T13:22:45.634Z,0.55
2023-09-21T13:23:15.788Z,0.59
2023-09-21T13:23:44.653Z,0.55
2023-09-21T13:24:15.830Z,0.64
2023-09-21T13:24:45.781Z,0.58
2023-09-21T13:25:15.816Z,0.56
2023-09-21T13:25:45.634Z,0.58
2023-09-21T13:26:15.749Z,0.51
2023-09-21T13:26:45.817Z,0.53
2023-09-21T13:27:15.731Z,0.50
2023-09-21T13:27:45.716Z,0.56
2023-09-21T13:28:15.744Z,0.51
2023-09-21T13:28:45.674Z,0.56
2023-09-21T13:29:17.409Z,0.57
2023-09-21T13:29:45.730Z,0.57
2023-09-21T13:30:15.753Z,0.53
2023-09-21T13:30:45.783Z,0.49
2023-09-21T13:31:15.626Z,0.53
2023-09-21T13:31:45.722Z,0.55
2023-09-21T13:32:15.694Z,0.58
2023-09-21T13:32:44.711Z,0.58
2023-09-21T13:33:15.650Z,0.57
2023-09-21T13:33:45.827Z,0.73
2023-09-21T13:34:15.851Z,0.75
2023-09-21T13:34:45.680Z,0.75
2023-09-21T13:35:15.669Z,0.56
2023-09-21T13:35:45.683Z,0.59
2023-09-21T13:36:15.690Z,0.58
2023-09-21T13:36:46.537Z,0.61
2023-09-21T13:37:15.651Z,0.69
2023-09-21T13:37:45.653Z,0.75
2023-09-21T13:38:15.652Z,0.81
2023-09-21T13:38:45.795Z,0.63
2023-09-21T13:39:15.687Z,0.57
2023-09-21T13:39:45.628Z,0.53
2023-09-21T13:40:15.632Z,0.60
2023-09-21T13:40:45.630Z,0.62
2023-09-21T13:41:15.514Z,0.57
2023-09-21T13:41:45.633Z,0.53
2023-09-21T13:42:15.692Z,0.64
2023-09-21T13:42:46.616Z,0.66
2023-09-21T13:43:15.786Z,0.64
2023-09-21T13:43:45.691Z,0.62
2023-09-21T13:44:15.592Z,0.65
2023-09-21T13:44:45.599Z,0.61
2023-09-21T13:45:15.631Z,0.55
2023-09-21T13:45:45.675Z,0.57
2023-09-21T13:46:15.480Z,0.59
2023-09-21T13:46:45.616Z,0.57
2023-09-21T13:47:15.588Z,0.57
2023-09-21T13:47:45.612Z,0.58
2023-09-21T13:48:15.713Z,0.56
2023-09-21T13:48:45.830Z,0.58
2023-09-21T13:49:17.973Z,0.61
2023-09-21T13:49:45.676Z,0.61
2023-09-21T13:50:15.543Z,0.61
2023-09-21T13:50:45.443Z,0.57
2023-09-21T13:51:15.436Z,0.61
2023-09-21T13:51:45.417Z,0.57
2023-09-21T13:52:15.406Z,0.57
2023-09-21T13:52:48.498Z,0.57
2023-09-21T13:53:15.398Z,0.61
2023-09-21T13:53:45.622Z,0.60
2023-09-21T13:54:15.604Z,0.55
2023-09-21T13:54:45.572Z,0.56
2023-09-21T13:55:18.869Z,0.57
2023-09-21T13:55:45.391Z,0.61
2023-09-21T13:56:15.506Z,0.59
2023-09-21T13:56:45.498Z,0.56
2023-09-21T13:57:15.546Z,0.61
2023-09-21T13:57:45.747Z,0.59
2023-09-21T13:58:15.499Z,0.61
2023-09-21T13:58:45.794Z,0.62
2023-09-21T13:59:18.812Z,0.58
2023-09-21T14:01:46.432Z,0.50
2023-09-21T14:02:15.902Z,0.50
2023-09-21T14:02:48.288Z,0.50
2023-09-21T14:03:16.437Z,0.50
2023-09-21T14:03:46.397Z,0.50
2023-09-21T14:04:15.225Z,0.50
2023-09-21T14:04:46.663Z,0.50
2023-09-21T14:05:16.123Z,0.50
2023-09-21T14:05:46.137Z,0.50
2023-09-21T14:06:15.979Z,0.50
2023-09-21T14:06:46.034Z,0.50
2023-09-21T14:07:16.669Z,0.50
2023-09-21T14:07:44.968Z,0.50
2023-09-21T14:08:15.916Z,0.53
2023-09-21T14:08:46.089Z,0.54
2023-09-21T14:09:15.961Z,0.50
2023-09-21T14:09:46.862Z,0.52
2023-09-21T14:10:16.855Z,0.53
2023-09-21T14:11:03.456Z,0.52
2023-09-21T14:11:17.630Z,0.52
2023-09-21T14:11:46.037Z,0.52
2023-09-21T14:13:39.448Z,0.50
2023-09-21T14:14:08.533Z,0.50
2023-09-21T14:14:38.448Z,0.50
2023-09-21T14:15:11.141Z,0.50
2023-09-21T14:15:38.829Z,0.50
2023-09-21T14:16:09.009Z,0.50
2023-09-21T14:18:21.629Z,0.50
2023-09-21T14:18:50.021Z,0.50
2023-09-21T14:19:20.106Z,0.50
2023-09-21T14:19:51.014Z,0.50
2023-09-21T14:20:22.223Z,0.50
2023-09-21T14:20:54.227Z,0.50
2023-09-21T14:21:20.776Z,0.50
2023-09-21T14:24:11.147Z,0.50
2023-09-21T14:24:41.200Z,0.50
2023-09-21T14:25:12.007Z,0.50
2023-09-21T14:25:43.026Z,0.50
2023-09-21T14:26:11.544Z,0.50
2023-09-21T14:26:42.351Z,0.50
2023-09-21T14:28:48.926Z,0.50
2023-09-21T14:30:37.105Z,0.50
2023-09-21T14:31:08.615Z,0.50
